createdAt,value
2019-02-17T00:00:41.620Z,95481.41
2019-02-17T00:03:10.310Z,95487.36
2019-02-17T00:05:38.953Z,95486.47
2019-02-17T00:08:07.621Z,95487.26
2019-02-17T00:10:36.323Z,95484.24
2019-02-17T00:13:05.005Z,95487.18
2019-02-17T00:15:33.681Z,95483.05
2019-02-17T00:18:02.425Z,95490.65
2019-02-17T00:20:31.072Z,95491.28
2019-02-17T00:22:59.755Z,95478.21
2019-02-17T00:25:28.420Z,95489.19
2019-02-17T00:27:57.106Z,95487.97
2019-02-17T00:30:25.771Z,95491.65
2019-02-17T00:32:54.447Z,95485.88
2019-02-17T00:35:23.119Z,95485.25
2019-02-17T00:37:51.797Z,95485.25
2019-02-17T00:40:20.466Z,95478.70
2019-02-17T00:42:49.181Z,95478.81
2019-02-17T00:45:17.852Z,95474.27
2019-02-17T00:47:46.525Z,95473.97
2019-02-17T00:50:15.192Z,95470.52
2019-02-17T00:52:43.859Z,95466.86
2019-02-17T00:55:12.539Z,95459.56
2019-02-17T00:57:41.266Z,95459.80
2019-02-17T01:00:12.631Z,95457.89
2019-02-17T01:02:41.302Z,95461.05
2019-02-17T01:05:09.977Z,95461.80
2019-02-17T01:07:38.739Z,95455.11
2019-02-17T01:10:08.406Z,95454.66
2019-02-17T01:12:37.080Z,95459.72
2019-02-17T01:15:11.047Z,95455.44
2019-02-17T01:17:39.752Z,95457.22
2019-02-17T01:20:10.188Z,95454.58
2019-02-17T01:22:38.855Z,95452.69
2019-02-17T01:25:10.723Z,95452.02
2019-02-17T01:27:39.391Z,95445.65
2019-02-17T01:30:11.004Z,95438.40
2019-02-17T01:32:39.675Z,95437.61
2019-02-17T01:35:08.344Z,95441.81
2019-02-17T01:37:37.026Z,95438.62
2019-02-17T01:40:08.535Z,95438.25
2019-02-17T01:42:37.219Z,95443.27
2019-02-17T01:45:08.390Z,95444.84
2019-02-17T01:47:37.109Z,95440.82
2019-02-17T01:50:08.189Z,95441.36
2019-02-17T01:52:36.954Z,95421.83
2019-02-17T01:55:07.320Z,95436.45
2019-02-17T01:57:36.025Z,95433.55
2019-02-17T02:00:07.239Z,95433.33
2019-02-17T02:02:35.904Z,95437.16
2019-02-17T02:05:06.170Z,95431.72
2019-02-17T02:07:34.842Z,95428.86
2019-02-17T02:10:04.425Z,95421.02
2019-02-17T02:12:33.085Z,95426.41
2019-02-17T02:15:01.768Z,95432.76
2019-02-17T02:17:30.441Z,95426.25
2019-02-17T02:19:59.113Z,95429.30
2019-02-17T02:22:27.877Z,95425.63
2019-02-17T02:24:56.549Z,95428.84
2019-02-17T02:27:25.212Z,95425.98
2019-02-17T02:29:53.882Z,95424.39
2019-02-17T02:32:22.551Z,95425.05
2019-02-17T02:34:51.231Z,95418.98
2019-02-17T02:37:19.928Z,95423.52
2019-02-17T02:39:48.570Z,95421.66
2019-02-17T02:42:17.350Z,95417.80
2019-02-17T02:44:48.566Z,95415.84
2019-02-17T02:47:16.445Z,95417.46
2019-02-17T02:49:45.115Z,95421.44
2019-02-17T02:52:13.833Z,95420.63
2019-02-17T02:54:42.508Z,95419.48
2019-02-17T02:57:11.172Z,95421.00
2019-02-17T02:59:39.850Z,95421.56
2019-02-17T03:02:08.520Z,95414.46
2019-02-17T03:04:37.191Z,95418.39
2019-02-17T03:07:05.852Z,95414.22
2019-02-17T03:09:34.522Z,95414.28
2019-02-17T03:12:03.179Z,95416.22
2019-02-17T03:14:31.855Z,95405.92
2019-02-17T03:17:00.955Z,95405.23
2019-02-17T03:19:29.664Z,95402.03
2019-02-17T03:21:58.333Z,95399.27
2019-02-17T03:24:27.049Z,95401.72
2019-02-17T03:26:55.771Z,95402.09
2019-02-17T03:29:24.466Z,95401.91
2019-02-17T03:31:53.151Z,95406.04
2019-02-17T03:34:21.812Z,95406.07
2019-02-17T03:36:50.488Z,95411.23
2019-02-17T03:39:19.156Z,95413.00
2019-02-17T03:41:47.832Z,95410.89
2019-02-17T03:44:16.496Z,95411.33
2019-02-17T03:46:45.184Z,95387.74
2019-02-17T03:49:13.864Z,95417.23
2019-02-17T03:51:42.540Z,95404.36
2019-02-17T03:54:11.204Z,95403.67
2019-02-17T03:56:39.868Z,95408.19
2019-02-17T03:59:08.562Z,95409.34
2019-02-17T04:01:37.230Z,95411.61
2019-02-17T04:04:05.898Z,95410.27
2019-02-17T04:06:34.571Z,95409.77
2019-02-17T04:09:04.791Z,95411.11
2019-02-17T04:11:33.456Z,95414.84
2019-02-17T04:14:02.136Z,95407.56
2019-02-17T04:16:30.839Z,95408.14
2019-02-17T04:18:59.522Z,95403.52
2019-02-17T04:21:28.203Z,95403.14
2019-02-17T04:23:56.885Z,95408.70
2019-02-17T04:26:25.544Z,95408.03
2019-02-17T04:28:54.218Z,95402.44
2019-02-17T04:31:22.898Z,95407.22
2019-02-17T04:33:51.560Z,95403.83
2019-02-17T04:36:20.246Z,95403.98
2019-02-17T04:38:48.913Z,95407.59
2019-02-17T04:41:17.647Z,95401.91
2019-02-17T04:43:46.309Z,95406.13
2019-02-17T04:46:14.973Z,95402.52
2019-02-17T04:48:43.647Z,95403.30
2019-02-17T04:51:12.313Z,95406.69
2019-02-17T04:53:40.997Z,95403.83
2019-02-17T04:56:09.649Z,95406.72
2019-02-17T04:58:38.330Z,95414.05
2019-02-17T05:01:06.996Z,95413.73
2019-02-17T05:03:35.677Z,95415.83
2019-02-17T05:06:04.351Z,95419.06
2019-02-17T05:08:33.046Z,95412.94
2019-02-17T05:11:01.700Z,95424.20
2019-02-17T05:13:30.375Z,95411.36
2019-02-17T05:15:59.060Z,95418.36
2019-02-17T05:18:27.748Z,95418.02
2019-02-17T05:20:56.408Z,95419.69
2019-02-17T05:23:25.126Z,95423.30
2019-02-17T05:25:53.788Z,95430.36
2019-02-17T05:28:22.451Z,95433.84
2019-02-17T05:30:53.189Z,95426.35
2019-02-17T05:33:21.523Z,95433.42
2019-02-17T05:35:50.201Z,95439.11
2019-02-17T05:38:18.885Z,95438.34
2019-02-17T05:40:47.626Z,95420.31
2019-02-17T05:43:16.297Z,95447.95
2019-02-17T05:45:44.969Z,95453.71
2019-02-17T05:48:13.644Z,95451.94
2019-02-17T05:50:42.303Z,95465.17
2019-02-17T05:53:10.975Z,95455.64
2019-02-17T05:55:39.655Z,95464.66
2019-02-17T05:58:09.938Z,95465.95
2019-02-17T06:00:39.411Z,95469.44
2019-02-17T06:03:08.099Z,95461.32
2019-02-17T06:05:36.768Z,95463.81
2019-02-17T06:08:05.436Z,95464.85
2019-02-17T06:10:34.117Z,95466.45
2019-02-17T06:13:02.787Z,95469.41
2019-02-17T06:15:31.501Z,95463.84
2019-02-17T06:18:00.169Z,95468.30
2019-02-17T06:20:28.844Z,95460.40
2019-02-17T06:22:57.529Z,95462.25
2019-02-17T06:25:26.234Z,95460.63
2019-02-17T06:27:54.911Z,95460.17
2019-02-17T06:30:23.595Z,95462.16
2019-02-17T06:32:52.288Z,95454.28
2019-02-17T06:35:20.991Z,95455.69
2019-02-17T06:37:49.686Z,95458.65
2019-02-17T06:40:18.422Z,95460.39
2019-02-17T06:42:47.102Z,95455.25
2019-02-17T06:45:15.791Z,95462.97
2019-02-17T06:47:44.453Z,95473.91
2019-02-17T06:50:13.121Z,95473.56
2019-02-17T06:52:41.839Z,95468.50
2019-02-17T06:55:24.010Z,95474.30
2019-02-17T06:57:52.692Z,95475.82
2019-02-17T07:00:25.808Z,95476.50
2019-02-17T07:02:54.490Z,95475.02
2019-02-17T07:05:24.747Z,95476.39
2019-02-17T07:07:53.440Z,95475.47
2019-02-17T07:10:22.089Z,95477.20
2019-02-17T07:12:50.771Z,95484.73
2019-02-17T07:15:19.440Z,95476.72
2019-02-17T07:17:48.114Z,95484.30
2019-02-17T07:20:16.886Z,95479.84
2019-02-17T07:22:45.655Z,95479.16
2019-02-17T07:25:14.337Z,95469.45
2019-02-17T07:27:43.032Z,95473.77
2019-02-17T07:30:11.810Z,95474.69
2019-02-17T07:32:40.479Z,95476.13
2019-02-17T07:35:09.152Z,95472.92
2019-02-17T07:37:37.825Z,95475.63
2019-02-17T07:40:07.495Z,95479.19
2019-02-17T07:42:36.247Z,95474.80
2019-02-17T07:45:07.297Z,95479.67
2019-02-17T07:47:35.991Z,95478.94
2019-02-17T07:50:06.587Z,95474.02
2019-02-17T07:52:35.271Z,95472.89
2019-02-17T07:55:04.449Z,95475.89
2019-02-17T07:57:33.116Z,95473.58
2019-02-17T08:00:01.831Z,95472.62
2019-02-17T08:02:30.495Z,95450.57
2019-02-17T08:04:59.163Z,95468.04
2019-02-17T08:07:27.837Z,95469.52
2019-02-17T08:09:56.524Z,95465.84
2019-02-17T08:12:25.197Z,95461.48
2019-02-17T08:14:53.895Z,95459.05
2019-02-17T08:17:22.559Z,95464.73
2019-02-17T08:19:51.294Z,95469.05
2019-02-17T08:22:19.929Z,95454.91
2019-02-17T08:24:48.600Z,95464.05
2019-02-17T08:27:17.268Z,95456.09
2019-02-17T08:29:46.007Z,95463.64
2019-02-17T08:32:14.652Z,95465.13
2019-02-17T08:34:43.324Z,95468.33
2019-02-17T08:37:12.009Z,95474.27
2019-02-17T08:39:40.693Z,95468.13
2019-02-17T08:42:09.389Z,95472.16
2019-02-17T08:44:38.060Z,95469.10
2019-02-17T08:47:06.733Z,95454.34
2019-02-17T08:49:35.414Z,95438.27
2019-02-17T08:52:04.102Z,95459.44
2019-02-17T08:54:32.790Z,95458.48
2019-02-17T08:57:01.467Z,95451.45
2019-02-17T08:59:30.637Z,95461.70
2019-02-17T09:02:05.895Z,95456.29
2019-02-17T09:04:29.723Z,95457.53
2019-02-17T09:06:58.405Z,95454.61
2019-02-17T09:09:27.072Z,95452.41
2019-02-17T09:11:55.794Z,95449.00
2019-02-17T09:14:24.462Z,95452.95
2019-02-17T09:16:53.162Z,95454.38
2019-02-17T09:19:21.827Z,95453.44
2019-02-17T09:21:50.494Z,95451.05
2019-02-17T09:24:19.183Z,95453.23
2019-02-17T09:26:47.846Z,95451.42
2019-02-17T09:29:16.530Z,95450.55
2019-02-17T09:31:45.413Z,95457.95
2019-02-17T09:34:14.066Z,95452.02
2019-02-17T09:36:42.755Z,95451.36
2019-02-17T09:39:11.438Z,95448.69
2019-02-17T09:41:40.121Z,95422.73
2019-02-17T09:44:08.814Z,95442.95
2019-02-17T09:46:37.512Z,95445.59
2019-02-17T09:49:06.193Z,95443.06
2019-02-17T09:51:34.929Z,95437.98
2019-02-17T09:54:03.672Z,95443.61
2019-02-17T09:56:32.357Z,95420.41
2019-02-17T09:59:01.045Z,95434.07
2019-02-17T10:01:29.740Z,95434.72
2019-02-17T10:03:58.595Z,95423.06
2019-02-17T10:06:27.253Z,95422.66
2019-02-17T10:08:55.931Z,95422.45
2019-02-17T10:11:24.618Z,95412.39
2019-02-17T10:13:53.278Z,95411.33
2019-02-17T10:16:21.963Z,95406.25
2019-02-17T10:18:50.641Z,95401.05
2019-02-17T10:21:19.317Z,95402.96
2019-02-17T10:23:48.006Z,95399.15
2019-02-17T10:26:16.669Z,95394.23
2019-02-17T10:28:45.341Z,95378.05
2019-02-17T10:31:14.027Z,95389.84
2019-02-17T10:33:43.604Z,95366.55
2019-02-17T10:36:12.318Z,95384.34
2019-02-17T10:38:40.963Z,95378.89
2019-02-17T10:41:09.697Z,95355.97
2019-02-17T10:43:38.519Z,95374.37
2019-02-17T10:46:07.201Z,95371.02
2019-02-17T10:48:35.906Z,95359.97
2019-02-17T10:51:04.692Z,95351.64
2019-02-17T10:53:33.368Z,95346.26
2019-02-17T10:56:02.069Z,95344.59
2019-02-17T10:58:30.746Z,95337.62
2019-02-17T11:00:59.414Z,95336.66
2019-02-17T11:03:28.099Z,95330.70
2019-02-17T11:05:56.779Z,95329.41
2019-02-17T11:08:25.486Z,95321.81
2019-02-17T11:10:54.163Z,95314.40
2019-02-17T11:13:22.855Z,95308.09
2019-02-17T11:15:51.520Z,95302.02
2019-02-17T11:18:20.200Z,95309.20
2019-02-17T11:20:48.920Z,95302.31
2019-02-17T11:23:17.601Z,95292.78
2019-02-17T11:25:46.376Z,95287.23
2019-02-17T11:28:15.061Z,95284.44
2019-02-17T11:30:43.757Z,95279.47
2019-02-17T11:33:12.432Z,95269.38
2019-02-17T11:35:41.118Z,95267.91
2019-02-17T11:38:09.798Z,95268.87
2019-02-17T11:40:38.484Z,95265.52
2019-02-17T11:43:07.156Z,95259.58
2019-02-17T11:45:35.829Z,95258.63
2019-02-17T11:48:04.793Z,95253.55
2019-02-17T11:50:33.455Z,95256.24
2019-02-17T11:53:02.134Z,95244.67
2019-02-17T11:55:30.817Z,95245.30
2019-02-17T11:57:59.505Z,95238.88
2019-02-17T12:00:28.650Z,95235.44
2019-02-17T12:03:07.246Z,95240.55
2019-02-17T12:05:27.779Z,95237.27
2019-02-17T12:07:56.462Z,95229.94
2019-02-17T12:10:25.141Z,95232.53
2019-02-17T12:12:53.860Z,95227.28
2019-02-17T12:15:22.772Z,95217.86
2019-02-17T12:17:51.444Z,95220.77
2019-02-17T12:20:23.099Z,95210.78
2019-02-17T12:22:53.369Z,95212.44
2019-02-17T12:25:23.614Z,95210.24
2019-02-17T12:27:59.860Z,95198.38
2019-02-17T12:30:28.558Z,95201.59
2019-02-17T12:32:57.238Z,95180.87
2019-02-17T12:35:25.934Z,95199.22
2019-02-17T12:37:54.614Z,95192.91
2019-02-17T12:40:23.358Z,95190.40
2019-02-17T12:42:52.034Z,95181.26
2019-02-17T12:45:20.704Z,95186.31
2019-02-17T12:47:57.577Z,95179.73
2019-02-17T12:50:20.193Z,95173.95
2019-02-17T12:52:48.865Z,95171.28
2019-02-17T12:55:17.542Z,95167.95
2019-02-17T12:57:46.221Z,95164.14
2019-02-17T13:00:17.590Z,95167.38
2019-02-17T13:02:46.277Z,95157.60
2019-02-17T13:05:14.955Z,95160.14
2019-02-17T13:07:44.712Z,95156.51
2019-02-17T13:10:13.587Z,95158.29
2019-02-17T13:12:42.347Z,95148.57
2019-02-17T13:15:13.221Z,95147.80
2019-02-17T13:17:41.929Z,95143.95
2019-02-17T13:20:15.156Z,95147.06
2019-02-17T13:22:43.859Z,95142.20
2019-02-17T13:25:14.425Z,95138.81
2019-02-17T13:27:43.110Z,95139.78
2019-02-17T13:30:23.524Z,95141.88
2019-02-17T13:32:52.201Z,95136.47
2019-02-17T13:35:20.972Z,95132.59
2019-02-17T13:37:49.659Z,95134.00
2019-02-17T13:40:18.337Z,95132.80
2019-02-17T13:42:47.091Z,95135.38
2019-02-17T13:45:17.228Z,95136.67
2019-02-17T13:47:45.912Z,95131.67
2019-02-17T13:50:16.712Z,95129.69
2019-02-17T13:52:45.431Z,95129.03
2019-02-17T13:55:14.111Z,95125.09
2019-02-17T13:57:42.812Z,95121.64
2019-02-17T14:00:16.398Z,95121.94
2019-02-17T14:02:45.194Z,95118.09
2019-02-17T14:05:13.861Z,95112.69
2019-02-17T14:07:42.556Z,95111.91
2019-02-17T14:10:13.494Z,95115.46
2019-02-17T14:12:42.187Z,95115.78
2019-02-17T14:15:16.407Z,95117.09
2019-02-17T14:17:45.095Z,95111.97
2019-02-17T14:20:13.875Z,95107.63
2019-02-17T14:22:42.573Z,95109.85
2019-02-17T14:25:11.831Z,95103.84
2019-02-17T14:27:40.510Z,95101.88
2019-02-17T14:30:14.360Z,95103.37
2019-02-17T14:32:43.033Z,95100.45
2019-02-17T14:35:11.801Z,95104.05
2019-02-17T14:37:40.478Z,95099.58
2019-02-17T14:40:14.869Z,95093.78
2019-02-17T14:42:43.548Z,95099.09
2019-02-17T14:45:14.449Z,95090.93
2019-02-17T14:47:43.130Z,95102.48
2019-02-17T14:50:12.795Z,95092.69
2019-02-17T14:52:41.549Z,95087.81
2019-02-17T14:55:11.764Z,95081.27
2019-02-17T14:57:40.523Z,95082.67
2019-02-17T15:00:14.374Z,95086.72
2019-02-17T15:02:43.052Z,95090.63
2019-02-17T15:05:11.926Z,95084.16
2019-02-17T15:07:40.615Z,95086.79
2019-02-17T15:10:10.994Z,95088.44
2019-02-17T15:12:39.676Z,95084.20
2019-02-17T15:15:13.515Z,95086.08
2019-02-17T15:17:42.232Z,95087.28
2019-02-17T15:20:13.116Z,95092.42
2019-02-17T15:22:41.799Z,95089.14
2019-02-17T15:25:11.978Z,95086.41
2019-02-17T15:27:40.653Z,95085.83
2019-02-17T15:30:12.584Z,95090.63
2019-02-17T15:32:41.255Z,95097.40
2019-02-17T15:35:09.959Z,95096.69
2019-02-17T15:37:38.624Z,95101.41
2019-02-17T15:40:12.348Z,95092.65
2019-02-17T15:42:43.041Z,95090.38
2019-02-17T15:45:14.821Z,95102.54
2019-02-17T15:47:43.478Z,95093.69
2019-02-17T15:50:13.551Z,95099.58
2019-02-17T15:52:42.249Z,95103.54
2019-02-17T15:55:12.703Z,95099.92
2019-02-17T15:57:41.392Z,95109.27
2019-02-17T16:00:15.414Z,95117.30
2019-02-17T16:02:44.102Z,95112.15
2019-02-17T16:05:12.787Z,95116.86
2019-02-17T16:07:41.453Z,95117.50
2019-02-17T16:10:11.844Z,95123.25
2019-02-17T16:12:40.497Z,95127.01
2019-02-17T16:15:17.723Z,95125.09
2019-02-17T16:17:46.397Z,95128.17
2019-02-17T16:20:15.278Z,95130.73
2019-02-17T16:22:43.956Z,95130.42
2019-02-17T16:25:13.026Z,95137.06
2019-02-17T16:27:41.694Z,95134.96
2019-02-17T16:30:18.801Z,95137.27
2019-02-17T16:32:47.459Z,95142.08
2019-02-17T16:35:16.141Z,95140.16
2019-02-17T16:37:44.798Z,95146.72
2019-02-17T16:40:17.439Z,95142.23
2019-02-17T16:42:46.117Z,95139.84
2019-02-17T16:45:15.391Z,95146.44
2019-02-17T16:47:44.763Z,95143.60
2019-02-17T16:50:19.239Z,95140.19
2019-02-17T16:52:48.043Z,95148.75
2019-02-17T16:55:16.661Z,95149.66
2019-02-17T16:57:45.342Z,95145.91
2019-02-17T17:00:18.424Z,95142.86
2019-02-17T17:02:47.093Z,95155.37
2019-02-17T17:05:15.769Z,95130.89
2019-02-17T17:07:44.532Z,95160.39
2019-02-17T17:10:14.015Z,95162.49
2019-02-17T17:12:42.693Z,95154.18
2019-02-17T17:15:11.548Z,95159.61
2019-02-17T17:17:40.230Z,95163.08
2019-02-17T17:20:10.963Z,95168.64
2019-02-17T17:22:39.648Z,95166.10
2019-02-17T17:25:10.312Z,95161.45
2019-02-17T17:27:41.235Z,95167.45
2019-02-17T17:30:12.246Z,95163.41
2019-02-17T17:32:41.021Z,95166.70
2019-02-17T17:35:10.785Z,95163.84
2019-02-17T17:37:39.977Z,95169.73
2019-02-17T17:40:11.011Z,95161.75
2019-02-17T17:42:39.852Z,95165.97
2019-02-17T17:45:16.621Z,95165.35
2019-02-17T17:47:45.324Z,95143.25
2019-02-17T17:50:17.311Z,95164.16
2019-02-17T17:52:46.093Z,95164.00
2019-02-17T17:55:14.995Z,95169.42
2019-02-17T17:57:43.671Z,95164.14
2019-02-17T18:00:20.242Z,95168.95
2019-02-17T18:02:48.935Z,95171.95
2019-02-17T18:05:17.596Z,95173.12
2019-02-17T18:07:46.269Z,95169.06
2019-02-17T18:10:16.047Z,95171.95
2019-02-17T18:12:44.708Z,95173.58
2019-02-17T18:15:18.661Z,95176.11
2019-02-17T18:17:53.803Z,95180.49
2019-02-17T18:20:17.710Z,95177.95
2019-02-17T18:22:46.387Z,95186.20
2019-02-17T18:25:15.267Z,95185.42
2019-02-17T18:27:43.922Z,95184.20
2019-02-17T18:30:16.531Z,95184.17
2019-02-17T18:32:45.562Z,95185.34
2019-02-17T18:35:19.727Z,95187.09
2019-02-17T18:37:44.627Z,95191.08
2019-02-17T18:40:20.667Z,95181.70
2019-02-17T18:42:49.374Z,95189.72
2019-02-17T18:45:18.035Z,95183.90
2019-02-17T18:47:46.724Z,95178.64
2019-02-17T18:50:17.467Z,95185.92
2019-02-17T18:52:46.221Z,95191.33
2019-02-17T18:55:15.192Z,95193.00
2019-02-17T18:57:50.035Z,95188.22
2019-02-17T19:00:24.654Z,95194.29
2019-02-17T19:02:53.431Z,95195.70
2019-02-17T19:05:31.711Z,95190.87
2019-02-17T19:07:52.490Z,95190.81
2019-02-17T19:10:21.165Z,95191.38
2019-02-17T19:12:49.884Z,95187.03
2019-02-17T19:15:22.876Z,95190.98
2019-02-17T19:17:51.573Z,95194.33
2019-02-17T19:20:31.719Z,95193.88
2019-02-17T19:23:00.382Z,95191.41
2019-02-17T19:25:29.058Z,95197.62
2019-02-17T19:27:57.721Z,95200.38
2019-02-17T19:30:26.398Z,95190.14
2019-02-17T19:32:55.764Z,95192.73
2019-02-17T19:35:24.442Z,95193.11
2019-02-17T19:37:53.204Z,95190.17
2019-02-17T19:40:22.033Z,95188.66
2019-02-17T19:42:50.708Z,95189.27
2019-02-17T19:45:19.985Z,95192.55
2019-02-17T19:47:48.661Z,95193.61
2019-02-17T19:50:17.669Z,95190.81
2019-02-17T19:52:46.456Z,95196.70
2019-02-17T19:55:15.343Z,95198.06
2019-02-17T19:57:44.020Z,95194.29
2019-02-17T20:00:22.657Z,95193.48
2019-02-17T20:02:55.998Z,95198.73
2019-02-17T20:05:26.237Z,95201.84
2019-02-17T20:07:54.935Z,95204.12
2019-02-17T20:10:23.732Z,95203.60
2019-02-17T20:12:52.402Z,95202.40
2019-02-17T20:15:22.475Z,95200.86
2019-02-17T20:17:51.181Z,95204.59
2019-02-17T20:20:19.848Z,95207.87
2019-02-17T20:22:48.525Z,95210.95
2019-02-17T20:25:17.200Z,95212.48
2019-02-17T20:27:45.875Z,95208.47
2019-02-17T20:30:15.045Z,95202.42
2019-02-17T20:32:45.272Z,95208.02
2019-02-17T20:35:14.039Z,95205.39
2019-02-17T20:37:42.858Z,95202.71
2019-02-17T20:40:16.425Z,95200.71
2019-02-17T20:42:45.085Z,95202.71
2019-02-17T20:45:13.859Z,95203.25
2019-02-17T20:47:42.516Z,95204.70
2019-02-17T20:50:13.199Z,95199.21
2019-02-17T20:52:41.899Z,95203.05
2019-02-17T20:55:11.785Z,95207.09
2019-02-17T20:57:40.454Z,95209.46
2019-02-17T21:00:13.678Z,95202.55
2019-02-17T21:02:42.426Z,95215.45
2019-02-17T21:05:11.978Z,95213.84
2019-02-17T21:07:40.689Z,95211.95
2019-02-17T21:10:11.239Z,95200.73
2019-02-17T21:12:39.902Z,95200.67
2019-02-17T21:15:13.763Z,95204.17
2019-02-17T21:17:42.429Z,95202.92
2019-02-17T21:20:11.795Z,95203.63
2019-02-17T21:22:40.476Z,95199.66
2019-02-17T21:25:10.568Z,95199.55
2019-02-17T21:27:39.239Z,95206.22
2019-02-17T21:30:11.064Z,95203.25
2019-02-17T21:32:39.793Z,95206.70
2019-02-17T21:35:11.365Z,95207.78
2019-02-17T21:37:40.042Z,95206.30
2019-02-17T21:40:10.913Z,95206.84
2019-02-17T21:42:39.584Z,95205.71
2019-02-17T21:45:10.623Z,95208.58
2019-02-17T21:47:39.395Z,95211.55
2019-02-17T21:50:14.961Z,95211.08
2019-02-17T21:52:43.667Z,95210.52
2019-02-17T21:55:13.638Z,95212.09
2019-02-17T21:57:42.513Z,95209.13
2019-02-17T22:00:18.445Z,95213.39
2019-02-17T22:02:47.200Z,95209.39
2019-02-17T22:05:15.884Z,95206.88
2019-02-17T22:07:45.161Z,95210.34
2019-02-17T22:10:16.476Z,95220.94
2019-02-17T22:12:45.145Z,95218.03
2019-02-17T22:15:15.815Z,95224.13
2019-02-17T22:17:44.764Z,95223.88
2019-02-17T22:20:13.611Z,95228.69
2019-02-17T22:22:42.284Z,95223.36
2019-02-17T22:25:11.271Z,95217.15
2019-02-17T22:27:39.945Z,95219.16
2019-02-17T22:30:13.460Z,95219.58
2019-02-17T22:32:42.145Z,95211.48
2019-02-17T22:35:10.905Z,95217.41
2019-02-17T22:37:39.626Z,95218.89
2019-02-17T22:40:12.530Z,95226.19
2019-02-17T22:42:41.227Z,95223.84
2019-02-17T22:45:11.295Z,95221.09
2019-02-17T22:47:39.970Z,95223.19
2019-02-17T22:50:16.112Z,95221.09
2019-02-17T22:52:46.183Z,95216.41
2019-02-17T22:55:15.054Z,95216.98
2019-02-17T22:57:43.731Z,95219.41
2019-02-17T23:00:53.495Z,95218.58
2019-02-17T23:03:22.153Z,95071.65
2019-02-17T23:05:50.827Z,95211.42
2019-02-17T23:08:19.527Z,95216.72
2019-02-17T23:10:48.191Z,95215.23
2019-02-17T23:13:16.864Z,95216.17
2019-02-17T23:15:45.522Z,95215.85
2019-02-17T23:18:14.221Z,95218.81
2019-02-17T23:20:42.929Z,95220.31
2019-02-17T23:23:11.559Z,95212.44
2019-02-17T23:25:40.229Z,95212.67
2019-02-17T23:28:08.962Z,95215.96
2019-02-17T23:30:37.603Z,95209.66
2019-02-17T23:33:06.281Z,95212.77
2019-02-17T23:35:34.969Z,95206.48
2019-02-17T23:38:03.635Z,95211.41
2019-02-17T23:40:32.306Z,95204.19
2019-02-17T23:43:00.968Z,95212.59
2019-02-17T23:45:29.661Z,95189.16
2019-02-17T23:47:58.323Z,95207.79
2019-02-17T23:50:27.054Z,95214.52
2019-02-17T23:52:55.726Z,95206.54
2019-02-17T23:55:24.391Z,95206.80
2019-02-17T23:57:53.112Z,95208.88
